RJFKRJFT

Guest
Details From RJFK - KAGOSHIMA
To RJFT - KUMAMOTO
Flight Number -
Tags generated
Created
Modified
Stats Distance 63 nm / 117 km
Max Altitude 100 ft / 30 m
Waypoints 3
Social Downloads 0
Likes 0
Share VATSIM

Download

Looking for another format? Having issues loading an existing format? Contact us
Advertisement - Login to hide

Notes

Basic altitude profile: - Ascent Rate: 2500ft/min - Ascent Speed: 250kts - Cruise Altitude: 35000ft - Cruise Speed: 420kts - Descent Rate: 1500ft/min - Descent Speed: 250kts Options: - Use NATs: yes - Use PACOTS: yes - Use low airways: yes - Use high airways: yes

Route

RJFK KUE RJFT

ID Type Via Altitude Latitude Longitude Leg Dist Tot Dist Heading (true) Name
O RJFK APT - 0 ft / 0 m 31.80340˚ 130.71941˚ - 0 nm - KAGOSHIMA
KUE VOR - 100 ft / 30 m 32.83480˚ 130.84151˚ 62 nm 62 nm 6° / 6° KUMAMOTO VOR-DME
O RJFT APT - 0 ft / 0 m 32.83732˚ 130.85505˚ 0 nm 62 nm 78° / 78° KUMAMOTO

Altitude Profile

Advertisement - Login to hide

RJFK

Details ICAO RJFK (KOJ)
Name KAGOSHIMA
Region Japan
Timezone Asia/Tokyo (UTC+9.0)
Stats Elevation 906 ft / 276 m (AMSL)
Location 31.803400° 130.719405°
Runways 1
Magnetic Variation 6.946° W

METAR

RJFK 240400Z 24005KT 190V310 9999 FEW020 SCT/// 27/14 Q1009 RMK 1CU020 A2981 VOLCANIC ASH CLOUD S-SW

Decode

TAF

TAF RJFK 232305Z 2400/2506 34003KT 9999 FEW035 BECMG 2400/2402 18005KT BECMG 2408/2410 04003KT BECMG 2421/2500 14005KT

Decode

Departure Runways

ID Width Length Bearing (true) Bearing (mag) Surface Threshold Offset Overrun Length
16 150 ft / 46 m 9,861 ft / 3,006 m 150.11° 157.06° Asphalt 0 ft / 0 m 200 ft / 61 m
34 150 ft / 46 m 9,861 ft / 3,006 m 330.11° 337.06° Asphalt 0 ft / 0 m 200 ft / 61 m

RJFT

Details ICAO RJFT (KMJ)
Name KUMAMOTO
Region Japan
Timezone Asia/Tokyo (UTC+9.0)
Stats Elevation 642 ft / 196 m (AMSL)
Location 32.837318° 130.855052°
Runways 1
Magnetic Variation 7.259° W

METAR

RJFT 240400Z 33005KT 270V030 CAVOK 26/10 Q1009

Decode

TAF

TAF RJFT 232307Z 2400/2506 01005KT 9999 FEW030 BECMG 2400/2402 23007KT BECMG 2412/2415 06004KT BECMG 2421/2500 23005KT

Decode

Destination Runways

ID Width Length Bearing (true) Bearing (mag) Surface Threshold Offset Overrun Length
07 150 ft / 46 m 9,833 ft / 2,997 m 64.47° 71.73° Asphalt 0 ft / 0 m 200 ft / 61 m
25 150 ft / 46 m 9,833 ft / 2,997 m 244.49° 251.75° Asphalt 0 ft / 0 m 200 ft / 61 m

Approach Navaids

Runway Type Ident Frequency Range Bearing (true) Bearing (mag) Slope Elevation
07 Localiser IKU 109.30 MHz 18 nm / 33 km 64.49° 71.75° - 642 ft / 196 m (AMSL)
07 Glidescope IKU 109.30 MHz 10 nm / 19 km 64.48° 71.74° 3.00° 651 ft / 198 m (AMSL)